sensor_id;sensor_type;location;lat;lon;timestamp;temperature;humidity
13998;DHT22;7074;51.508;7.018;2022-09-27T00:01:34;13.00;99.90
13998;DHT22;7074;51.508;7.018;2022-09-27T00:04:02;12.90;99.90
13998;DHT22;7074;51.508;7.018;2022-09-27T00:06:31;12.90;99.90
13998;DHT22;7074;51.508;7.018;2022-09-27T00:08:59;12.90;99.90
13998;DHT22;7074;51.508;7.018;2022-09-27T00:11:29;12.90;99.90
13998;DHT22;7074;51.508;7.018;2022-09-27T00:13:59;12.90;99.90
13998;DHT22;7074;51.508;7.018;2022-09-27T00:16:30;12.90;99.90
13998;DHT22;7074;51.508;7.018;2022-09-27T00:18:58;12.90;99.90
13998;DHT22;7074;51.508;7.018;2022-09-27T00:21:26;12.90;99.90
13998;DHT22;7074;51.508;7.018;2022-09-27T00:23:55;12.90;99.90
13998;DHT22;7074;51.508;7.018;2022-09-27T00:26:24;12.90;99.90
13998;DHT22;7074;51.508;7.018;2022-09-27T00:28:52;12.90;99.90
13998;DHT22;7074;51.508;7.018;2022-09-27T00:31:24;12.90;99.90
13998;DHT22;7074;51.508;7.018;2022-09-27T00:33:57;12.90;99.90
13998;DHT22;7074;51.508;7.018;2022-09-27T00:36:26;12.90;99.90
13998;DHT22;7074;51.508;7.018;2022-09-27T00:38:54;12.90;99.90
13998;DHT22;7074;51.508;7.018;2022-09-27T00:41:24;12.80;99.90
13998;DHT22;7074;51.508;7.018;2022-09-27T00:43:54;12.80;99.90
13998;DHT22;7074;51.508;7.018;2022-09-27T00:46:27;12.80;99.90
13998;DHT22;7074;51.508;7.018;2022-09-27T00:49:04;12.80;99.90
13998;DHT22;7074;51.508;7.018;2022-09-27T00:51:35;12.70;99.90
13998;DHT22;7074;51.508;7.018;2022-09-27T00:54:05;12.70;99.90
13998;DHT22;7074;51.508;7.018;2022-09-27T00:56:34;12.70;99.90
13998;DHT22;7074;51.508;7.018;2022-09-27T00:59:08;12.70;99.90
13998;DHT22;7074;51.508;7.018;2022-09-27T01:01:38;12.70;99.90
13998;DHT22;7074;51.508;7.018;2022-09-27T01:04:09;12.70;99.90
13998;DHT22;7074;51.508;7.018;2022-09-27T01:06:38;12.60;99.90
13998;DHT22;7074;51.508;7.018;2022-09-27T01:09:07;12.60;99.90
13998;DHT22;7074;51.508;7.018;2022-09-27T01:11:40;12.60;99.90
13998;DHT22;7074;51.508;7.018;2022-09-27T01:14:38;12.50;99.90
13998;DHT22;7074;51.508;7.018;2022-09-27T01:17:19;12.50;99.90
13998;DHT22;7074;51.508;7.018;2022-09-27T01:20:19;12.50;99.90
13998;DHT22;7074;51.508;7.018;2022-09-27T01:23:03;12.50;99.90
13998;DHT22;7074;51.508;7.018;2022-09-27T01:25:46;12.50;99.90
13998;DHT22;7074;51.508;7.018;2022-09-27T01:28:25;12.50;99.90
13998;DHT22;7074;51.508;7.018;2022-09-27T01:31:03;12.50;99.90
13998;DHT22;7074;51.508;7.018;2022-09-27T01:33:41;12.50;99.90
13998;DHT22;7074;51.508;7.018;2022-09-27T01:36:19;12.50;99.90
13998;DHT22;7074;51.508;7.018;2022-09-27T01:39:02;12.50;99.90
13998;DHT22;7074;51.508;7.018;2022-09-27T01:41:52;12.50;99.90
13998;DHT22;7074;51.508;7.018;2022-09-27T01:44:37;12.50;99.90
13998;DHT22;7074;51.508;7.018;2022-09-27T01:47:18;12.50;99.90
13998;DHT22;7074;51.508;7.018;2022-09-27T01:50:01;12.50;99.90
13998;DHT22;7074;51.508;7.018;2022-09-27T01:52:35;12.50;99.90
13998;DHT22;7074;51.508;7.018;2022-09-27T01:55:07;12.50;99.90
13998;DHT22;7074;51.508;7.018;2022-09-27T01:57:56;12.50;99.90
13998;DHT22;7074;51.508;7.018;2022-09-27T02:00:25;12.40;99.90
13998;DHT22;7074;51.508;7.018;2022-09-27T02:02:58;12.40;99.90
13998;DHT22;7074;51.508;7.018;2022-09-27T02:05:57;12.40;99.90
13998;DHT22;7074;51.508;7.018;2022-09-27T02:08:50;12.40;99.90
13998;DHT22;7074;51.508;7.018;2022-09-27T02:11:32;12.40;99.90
13998;DHT22;7074;51.508;7.018;2022-09-27T02:14:16;12.20;99.90
13998;DHT22;7074;51.508;7.018;2022-09-27T02:16:51;12.30;99.90
13998;DHT22;7074;51.508;7.018;2022-09-27T02:19:36;12.30;99.90
13998;DHT22;7074;51.508;7.018;2022-09-27T02:22:13;12.20;99.90
13998;DHT22;7074;51.508;7.018;2022-09-27T02:24:47;12.20;99.90
13998;DHT22;7074;51.508;7.018;2022-09-27T02:27:21;12.20;99.90
13998;DHT22;7074;51.508;7.018;2022-09-27T02:29:53;12.20;99.90
13998;DHT22;7074;51.508;7.018;2022-09-27T02:32:22;12.20;99.90
13998;DHT22;7074;51.508;7.018;2022-09-27T02:34:52;12.20;99.90
13998;DHT22;7074;51.508;7.018;2022-09-27T02:37:22;12.20;99.90
13998;DHT22;7074;51.508;7.018;2022-09-27T02:39:50;12.20;99.90
13998;DHT22;7074;51.508;7.018;2022-09-27T02:42:18;12.20;99.90
13998;DHT22;7074;51.508;7.018;2022-09-27T02:44:46;12.20;99.90
13998;DHT22;7074;51.508;7.018;2022-09-27T02:47:39;12.20;99.90
13998;DHT22;7074;51.508;7.018;2022-09-27T02:50:29;12.30;99.90
13998;DHT22;7074;51.508;7.018;2022-09-27T02:53:31;12.20;99.90
13998;DHT22;7074;51.508;7.018;2022-09-27T02:56:19;12.20;99.90
13998;DHT22;7074;51.508;7.018;2022-09-27T02:59:22;12.20;99.90
13998;DHT22;7074;51.508;7.018;2022-09-27T03:02:08;12.30;99.90
13998;DHT22;7074;51.508;7.018;2022-09-27T03:05:09;12.20;99.90
13998;DHT22;7074;51.508;7.018;2022-09-27T03:07:40;12.30;99.90
13998;DHT22;7074;51.508;7.018;2022-09-27T03:10:15;12.20;99.90
13998;DHT22;7074;51.508;7.018;2022-09-27T03:12:44;12.20;99.90
13998;DHT22;7074;51.508;7.018;2022-09-27T03:15:12;12.20;99.90
13998;DHT22;7074;51.508;7.018;2022-09-27T03:18:12;12.20;99.90
13998;DHT22;7074;51.508;7.018;2022-09-27T03:21:03;12.10;99.90
13998;DHT22;7074;51.508;7.018;2022-09-27T03:23:32;12.10;99.90
13998;DHT22;7074;51.508;7.018;2022-09-27T03:26:00;12.10;99.90
13998;DHT22;7074;51.508;7.018;2022-09-27T03:28:28;12.10;99.90
13998;DHT22;7074;51.508;7.018;2022-09-27T03:30:57;12.10;99.90
13998;DHT22;7074;51.508;7.018;2022-09-27T03:33:54;12.10;99.90
13998;DHT22;7074;51.508;7.018;2022-09-27T03:36:22;12.10;99.90
13998;DHT22;7074;51.508;7.018;2022-09-27T03:38:51;12.10;99.90
13998;DHT22;7074;51.508;7.018;2022-09-27T03:41:20;12.10;99.90
13998;DHT22;7074;51.508;7.018;2022-09-27T03:43:48;12.10;99.90
13998;DHT22;7074;51.508;7.018;2022-09-27T03:46:15;12.10;99.90
13998;DHT22;7074;51.508;7.018;2022-09-27T03:48:43;12.10;99.90
13998;DHT22;7074;51.508;7.018;2022-09-27T03:51:11;12.00;99.90
13998;DHT22;7074;51.508;7.018;2022-09-27T03:53:39;12.10;99.90
13998;DHT22;7074;51.508;7.018;2022-09-27T03:56:09;12.00;99.90
13998;DHT22;7074;51.508;7.018;2022-09-27T03:58:38;12.00;99.90
13998;DHT22;7074;51.508;7.018;2022-09-27T04:01:06;11.90;99.90
13998;DHT22;7074;51.508;7.018;2022-09-27T04:03:35;11.90;99.90
13998;DHT22;7074;51.508;7.018;2022-09-27T04:06:23;11.90;99.90
13998;DHT22;7074;51.508;7.018;2022-09-27T04:08:53;11.90;99.90
13998;DHT22;7074;51.508;7.018;2022-09-27T04:11:28;11.80;99.90
13998;DHT22;7074;51.508;7.018;2022-09-27T04:13:56;11.90;99.90
13998;DHT22;7074;51.508;7.018;2022-09-27T04:16:36;11.80;99.90
13998;DHT22;7074;51.508;7.018;2022-09-27T04:19:20;11.90;99.90
13998;DHT22;7074;51.508;7.018;2022-09-27T04:22:03;11.90;99.90
13998;DHT22;7074;51.508;7.018;2022-09-27T04:24:31;11.90;99.90
13998;DHT22;7074;51.508;7.018;2022-09-27T04:27:18;12.00;99.90
13998;DHT22;7074;51.508;7.018;2022-09-27T04:29:49;12.00;99.90
13998;DHT22;7074;51.508;7.018;2022-09-27T04:32:40;12.00;99.90
13998;DHT22;7074;51.508;7.018;2022-09-27T04:35:27;12.00;99.90
13998;DHT22;7074;51.508;7.018;2022-09-27T04:38:12;11.90;99.90
13998;DHT22;7074;51.508;7.018;2022-09-27T04:40:40;11.90;99.90
13998;DHT22;7074;51.508;7.018;2022-09-27T04:43:10;11.90;99.90
13998;DHT22;7074;51.508;7.018;2022-09-27T04:45:38;11.80;99.90
13998;DHT22;7074;51.508;7.018;2022-09-27T04:48:06;11.80;99.90
13998;DHT22;7074;51.508;7.018;2022-09-27T04:50:34;11.80;99.90
13998;DHT22;7074;51.508;7.018;2022-09-27T04:53:03;11.80;99.90
13998;DHT22;7074;51.508;7.018;2022-09-27T04:55:31;11.80;99.90
13998;DHT22;7074;51.508;7.018;2022-09-27T04:58:00;11.80;99.90
13998;DHT22;7074;51.508;7.018;2022-09-27T05:00:30;11.80;99.90
13998;DHT22;7074;51.508;7.018;2022-09-27T05:03:13;11.70;99.90
13998;DHT22;7074;51.508;7.018;2022-09-27T05:05:55;11.70;99.90
13998;DHT22;7074;51.508;7.018;2022-09-27T05:08:23;11.60;99.90
13998;DHT22;7074;51.508;7.018;2022-09-27T05:11:11;11.60;99.90
13998;DHT22;7074;51.508;7.018;2022-09-27T05:13:41;11.70;99.90
13998;DHT22;7074;51.508;7.018;2022-09-27T05:16:11;11.70;99.90
13998;DHT22;7074;51.508;7.018;2022-09-27T05:18:59;11.70;99.90
13998;DHT22;7074;51.508;7.018;2022-09-27T05:22:02;11.70;99.90
13998;DHT22;7074;51.508;7.018;2022-09-27T05:24:30;11.70;99.90
13998;DHT22;7074;51.508;7.018;2022-09-27T05:26:58;11.70;99.90
13998;DHT22;7074;51.508;7.018;2022-09-27T05:29:27;11.70;99.90
13998;DHT22;7074;51.508;7.018;2022-09-27T05:32:07;11.70;99.90
13998;DHT22;7074;51.508;7.018;2022-09-27T05:34:35;11.70;99.90
13998;DHT22;7074;51.508;7.018;2022-09-27T05:37:03;11.60;99.90
13998;DHT22;7074;51.508;7.018;2022-09-27T05:39:36;11.70;99.90
13998;DHT22;7074;51.508;7.018;2022-09-27T05:42:04;11.60;99.90
13998;DHT22;7074;51.508;7.018;2022-09-27T05:44:37;11.60;99.90
13998;DHT22;7074;51.508;7.018;2022-09-27T05:47:07;11.70;99.90
13998;DHT22;7074;51.508;7.018;2022-09-27T05:49:34;11.60;99.90
13998;DHT22;7074;51.508;7.018;2022-09-27T05:52:04;11.60;99.90
13998;DHT22;7074;51.508;7.018;2022-09-27T05:54:32;11.60;99.90
13998;DHT22;7074;51.508;7.018;2022-09-27T05:56:59;11.60;99.90
13998;DHT22;7074;51.508;7.018;2022-09-27T05:59:38;11.60;99.90
13998;DHT22;7074;51.508;7.018;2022-09-27T06:02:30;11.70;99.90
13998;DHT22;7074;51.508;7.018;2022-09-27T06:05:18;11.70;99.90
13998;DHT22;7074;51.508;7.018;2022-09-27T06:07:59;11.70;99.90
13998;DHT22;7074;51.508;7.018;2022-09-27T06:10:33;11.60;99.90
13998;DHT22;7074;51.508;7.018;2022-09-27T06:13:04;11.60;99.90
13998;DHT22;7074;51.508;7.018;2022-09-27T06:15:39;11.70;99.90
13998;DHT22;7074;51.508;7.018;2022-09-27T06:18:10;11.70;99.90
13998;DHT22;7074;51.508;7.018;2022-09-27T06:20:39;11.70;99.90
13998;DHT22;7074;51.508;7.018;2022-09-27T06:23:10;11.70;99.90
13998;DHT22;7074;51.508;7.018;2022-09-27T06:25:38;11.80;99.90
13998;DHT22;7074;51.508;7.018;2022-09-27T06:28:29;11.80;99.90
13998;DHT22;7074;51.508;7.018;2022-09-27T06:30:57;11.70;99.90
13998;DHT22;7074;51.508;7.018;2022-09-27T06:33:40;11.80;99.90
13998;DHT22;7074;51.508;7.018;2022-09-27T06:36:08;11.80;99.90
13998;DHT22;7074;51.508;7.018;2022-09-27T06:38:38;11.70;99.90
13998;DHT22;7074;51.508;7.018;2022-09-27T06:41:11;11.70;99.90
13998;DHT22;7074;51.508;7.018;2022-09-27T06:43:52;11.70;99.90
13998;DHT22;7074;51.508;7.018;2022-09-27T06:46:33;11.70;99.90
13998;DHT22;7074;51.508;7.018;2022-09-27T06:49:22;11.70;99.90
13998;DHT22;7074;51.508;7.018;2022-09-27T06:51:52;11.70;99.90
13998;DHT22;7074;51.508;7.018;2022-09-27T06:54:22;11.70;99.90
13998;DHT22;7074;51.508;7.018;2022-09-27T06:56:50;11.70;99.90
13998;DHT22;7074;51.508;7.018;2022-09-27T06:59:18;11.60;99.90
13998;DHT22;7074;51.508;7.018;2022-09-27T07:02:22;11.70;99.90
13998;DHT22;7074;51.508;7.018;2022-09-27T07:05:09;11.70;99.90
13998;DHT22;7074;51.508;7.018;2022-09-27T07:07:57;11.70;99.90
13998;DHT22;7074;51.508;7.018;2022-09-27T07:10:28;11.70;99.90
13998;DHT22;7074;51.508;7.018;2022-09-27T07:13:02;11.70;99.90
13998;DHT22;7074;51.508;7.018;2022-09-27T07:15:31;11.80;99.90
13998;DHT22;7074;51.508;7.018;2022-09-27T07:18:05;11.80;99.90
13998;DHT22;7074;51.508;7.018;2022-09-27T07:20:35;11.70;99.90
13998;DHT22;7074;51.508;7.018;2022-09-27T07:23:04;11.80;99.90
13998;DHT22;7074;51.508;7.018;2022-09-27T07:25:33;11.90;99.90
13998;DHT22;7074;51.508;7.018;2022-09-27T07:28:03;11.80;99.90
13998;DHT22;7074;51.508;7.018;2022-09-27T07:30:31;12.00;99.90
13998;DHT22;7074;51.508;7.018;2022-09-27T07:33:02;12.00;99.90
13998;DHT22;7074;51.508;7.018;2022-09-27T07:35:30;12.00;99.90
13998;DHT22;7074;51.508;7.018;2022-09-27T07:38:00;12.00;99.90
13998;DHT22;7074;51.508;7.018;2022-09-27T07:40:30;12.10;99.90
13998;DHT22;7074;51.508;7.018;2022-09-27T07:42:58;12.20;99.90
13998;DHT22;7074;51.508;7.018;2022-09-27T07:45:26;12.20;99.90
13998;DHT22;7074;51.508;7.018;2022-09-27T07:48:21;12.20;99.90
13998;DHT22;7074;51.508;7.018;2022-09-27T07:51:23;12.20;99.90
13998;DHT22;7074;51.508;7.018;2022-09-27T07:53:59;12.20;99.90
13998;DHT22;7074;51.508;7.018;2022-09-27T07:56:46;12.30;99.90
13998;DHT22;7074;51.508;7.018;2022-09-27T07:59:16;12.30;99.90
13998;DHT22;7074;51.508;7.018;2022-09-27T08:01:44;12.40;99.90
13998;DHT22;7074;51.508;7.018;2022-09-27T08:04:12;12.50;99.90
13998;DHT22;7074;51.508;7.018;2022-09-27T08:06:41;12.60;99.90
13998;DHT22;7074;51.508;7.018;2022-09-27T08:09:10;12.60;99.90
13998;DHT22;7074;51.508;7.018;2022-09-27T08:11:40;12.50;99.90
13998;DHT22;7074;51.508;7.018;2022-09-27T08:14:10;12.50;99.90
13998;DHT22;7074;51.508;7.018;2022-09-27T08:16:41;12.40;99.90
13998;DHT22;7074;51.508;7.018;2022-09-27T08:19:34;12.40;99.90
13998;DHT22;7074;51.508;7.018;2022-09-27T08:22:02;12.50;99.90
13998;DHT22;7074;51.508;7.018;2022-09-27T08:24:42;12.60;99.90
13998;DHT22;7074;51.508;7.018;2022-09-27T08:27:42;12.50;99.90
13998;DHT22;7074;51.508;7.018;2022-09-27T08:30:22;12.60;99.90
13998;DHT22;7074;51.508;7.018;2022-09-27T08:32:54;12.70;99.90
13998;DHT22;7074;51.508;7.018;2022-09-27T08:35:24;12.70;99.90
13998;DHT22;7074;51.508;7.018;2022-09-27T08:37:54;12.80;99.90
13998;DHT22;7074;51.508;7.018;2022-09-27T08:40:30;12.80;99.90
13998;DHT22;7074;51.508;7.018;2022-09-27T08:43:07;12.90;99.90
13998;DHT22;7074;51.508;7.018;2022-09-27T08:45:43;12.80;99.90
13998;DHT22;7074;51.508;7.018;2022-09-27T08:48:15;12.80;99.90
13998;DHT22;7074;51.508;7.018;2022-09-27T08:50:46;12.70;99.90
13998;DHT22;7074;51.508;7.018;2022-09-27T08:53:20;12.70;99.90
13998;DHT22;7074;51.508;7.018;2022-09-27T08:55:52;12.80;99.90
13998;DHT22;7074;51.508;7.018;2022-09-27T08:58:25;12.80;99.90
13998;DHT22;7074;51.508;7.018;2022-09-27T09:00:57;12.90;99.90
13998;DHT22;7074;51.508;7.018;2022-09-27T09:03:32;12.80;99.90
13998;DHT22;7074;51.508;7.018;2022-09-27T09:06:09;12.80;99.90
13998;DHT22;7074;51.508;7.018;2022-09-27T09:08:48;12.70;99.90
13998;DHT22;7074;51.508;7.018;2022-09-27T09:11:30;12.70;99.90
13998;DHT22;7074;51.508;7.018;2022-09-27T09:14:54;12.70;99.90
13998;DHT22;7074;51.508;7.018;2022-09-27T09:17:40;12.60;99.90
13998;DHT22;7074;51.508;7.018;2022-09-27T09:20:31;12.70;99.90
13998;DHT22;7074;51.508;7.018;2022-09-27T09:26:03;12.70;99.90
13998;DHT22;7074;51.508;7.018;2022-09-27T09:28:42;12.80;99.90
13998;DHT22;7074;51.508;7.018;2022-09-27T09:31:20;12.70;99.90
13998;DHT22;7074;51.508;7.018;2022-09-27T09:33:55;12.70;99.90
13998;DHT22;7074;51.508;7.018;2022-09-27T09:36:28;12.80;99.90
13998;DHT22;7074;51.508;7.018;2022-09-27T09:39:02;12.80;99.90
13998;DHT22;7074;51.508;7.018;2022-09-27T09:41:35;12.70;99.90
13998;DHT22;7074;51.508;7.018;2022-09-27T09:44:16;12.70;99.90
13998;DHT22;7074;51.508;7.018;2022-09-27T09:46:48;12.80;99.90
13998;DHT22;7074;51.508;7.018;2022-09-27T09:49:19;12.80;99.90
13998;DHT22;7074;51.508;7.018;2022-09-27T09:51:51;13.00;99.90
13998;DHT22;7074;51.508;7.018;2022-09-27T09:54:28;12.90;99.90
13998;DHT22;7074;51.508;7.018;2022-09-27T09:57:00;12.80;99.90
13998;DHT22;7074;51.508;7.018;2022-09-27T09:59:37;12.80;99.90
13998;DHT22;7074;51.508;7.018;2022-09-27T10:02:21;12.80;99.90
13998;DHT22;7074;51.508;7.018;2022-09-27T10:04:54;12.90;99.90
13998;DHT22;7074;51.508;7.018;2022-09-27T10:07:23;12.90;99.90
13998;DHT22;7074;51.508;7.018;2022-09-27T10:09:53;12.90;99.90
13998;DHT22;7074;51.508;7.018;2022-09-27T10:12:42;13.00;99.90
13998;DHT22;7074;51.508;7.018;2022-09-27T10:15:15;13.00;99.90
13998;DHT22;7074;51.508;7.018;2022-09-27T10:17:46;13.00;99.90
13998;DHT22;7074;51.508;7.018;2022-09-27T10:20:26;13.10;99.90
13998;DHT22;7074;51.508;7.018;2022-09-27T10:22:59;13.10;99.90
13998;DHT22;7074;51.508;7.018;2022-09-27T10:25:59;13.10;99.90
13998;DHT22;7074;51.508;7.018;2022-09-27T10:28:41;13.10;99.90
13998;DHT22;7074;51.508;7.018;2022-09-27T10:31:16;13.10;99.90
13998;DHT22;7074;51.508;7.018;2022-09-27T10:33:57;13.10;99.90
13998;DHT22;7074;51.508;7.018;2022-09-27T10:36:29;13.00;99.90
13998;DHT22;7074;51.508;7.018;2022-09-27T10:38:59;13.10;99.90
13998;DHT22;7074;51.508;7.018;2022-09-27T10:41:39;13.10;99.90
13998;DHT22;7074;51.508;7.018;2022-09-27T10:44:25;13.10;99.90
13998;DHT22;7074;51.508;7.018;2022-09-27T10:47:18;13.10;99.90
13998;DHT22;7074;51.508;7.018;2022-09-27T10:50:05;13.40;99.90
13998;DHT22;7074;51.508;7.018;2022-09-27T10:53:11;13.50;99.90
13998;DHT22;7074;51.508;7.018;2022-09-27T10:55:42;13.60;99.90
13998;DHT22;7074;51.508;7.018;2022-09-27T10:58:18;13.70;99.90
13998;DHT22;7074;51.508;7.018;2022-09-27T11:00:54;13.90;99.90
13998;DHT22;7074;51.508;7.018;2022-09-27T11:03:24;14.00;99.90
13998;DHT22;7074;51.508;7.018;2022-09-27T11:05:55;14.00;99.90
13998;DHT22;7074;51.508;7.018;2022-09-27T11:08:29;13.90;99.90
13998;DHT22;7074;51.508;7.018;2022-09-27T11:11:17;13.70;99.90
13998;DHT22;7074;51.508;7.018;2022-09-27T11:14:00;13.70;99.90
13998;DHT22;7074;51.508;7.018;2022-09-27T11:16:39;13.60;99.90
13998;DHT22;7074;51.508;7.018;2022-09-27T11:19:22;13.60;99.90
13998;DHT22;7074;51.508;7.018;2022-09-27T11:21:57;13.60;99.90
13998;DHT22;7074;51.508;7.018;2022-09-27T11:24:40;13.70;99.90
13998;DHT22;7074;51.508;7.018;2022-09-27T11:27:20;13.60;99.90
13998;DHT22;7074;51.508;7.018;2022-09-27T11:30:03;13.70;99.90
13998;DHT22;7074;51.508;7.018;2022-09-27T11:33:23;13.80;99.90
13998;DHT22;7074;51.508;7.018;2022-09-27T11:36:03;13.80;99.90
13998;DHT22;7074;51.508;7.018;2022-09-27T11:38:36;13.90;99.90
13998;DHT22;7074;51.508;7.018;2022-09-27T11:41:20;14.00;99.90
13998;DHT22;7074;51.508;7.018;2022-09-27T11:44:01;13.90;99.90
13998;DHT22;7074;51.508;7.018;2022-09-27T11:46:34;14.00;99.90
13998;DHT22;7074;51.508;7.018;2022-09-27T11:49:17;14.00;99.90
13998;DHT22;7074;51.508;7.018;2022-09-27T11:52:15;13.90;99.90
13998;DHT22;7074;51.508;7.018;2022-09-27T11:54:58;13.80;99.90
13998;DHT22;7074;51.508;7.018;2022-09-27T11:57:36;13.70;99.90
13998;DHT22;7074;51.508;7.018;2022-09-27T12:00:18;13.70;99.90
13998;DHT22;7074;51.508;7.018;2022-09-27T12:03:37;13.70;99.90
13998;DHT22;7074;51.508;7.018;2022-09-27T12:06:13;13.70;99.90
13998;DHT22;7074;51.508;7.018;2022-09-27T12:09:03;13.70;99.90
13998;DHT22;7074;51.508;7.018;2022-09-27T12:11:38;13.70;99.90
13998;DHT22;7074;51.508;7.018;2022-09-27T12:14:16;13.60;99.90
13998;DHT22;7074;51.508;7.018;2022-09-27T12:16:47;13.50;99.90
13998;DHT22;7074;51.508;7.018;2022-09-27T12:19:19;13.50;99.90
13998;DHT22;7074;51.508;7.018;2022-09-27T12:22:02;13.50;99.90
13998;DHT22;7074;51.508;7.018;2022-09-27T12:24:36;13.30;99.90
13998;DHT22;7074;51.508;7.018;2022-09-27T12:27:34;13.30;99.90
13998;DHT22;7074;51.508;7.018;2022-09-27T12:30:04;13.30;99.90
13998;DHT22;7074;51.508;7.018;2022-09-27T12:32:35;13.20;99.90
13998;DHT22;7074;51.508;7.018;2022-09-27T12:35:13;13.30;99.90
13998;DHT22;7074;51.508;7.018;2022-09-27T12:37:44;13.30;99.90
13998;DHT22;7074;51.508;7.018;2022-09-27T12:40:17;13.30;99.90
13998;DHT22;7074;51.508;7.018;2022-09-27T12:42:52;12.90;99.90
13998;DHT22;7074;51.508;7.018;2022-09-27T12:45:43;13.00;99.90
13998;DHT22;7074;51.508;7.018;2022-09-27T12:48:17;13.10;99.90
13998;DHT22;7074;51.508;7.018;2022-09-27T12:50:50;13.10;99.90
13998;DHT22;7074;51.508;7.018;2022-09-27T12:53:22;13.10;99.90
13998;DHT22;7074;51.508;7.018;2022-09-27T12:56:18;13.10;99.90
13998;DHT22;7074;51.508;7.018;2022-09-27T12:59:24;13.20;99.90
13998;DHT22;7074;51.508;7.018;2022-09-27T13:02:13;13.20;99.90
13998;DHT22;7074;51.508;7.018;2022-09-27T13:07:50;13.30;99.90
13998;DHT22;7074;51.508;7.018;2022-09-27T13:10:39;13.40;99.90
13998;DHT22;7074;51.508;7.018;2022-09-27T13:13:26;13.40;99.90
13998;DHT22;7074;51.508;7.018;2022-09-27T13:15:58;13.50;99.90
13998;DHT22;7074;51.508;7.018;2022-09-27T13:18:48;13.60;99.90
13998;DHT22;7074;51.508;7.018;2022-09-27T13:21:54;13.40;99.90
13998;DHT22;7074;51.508;7.018;2022-09-27T13:24:46;13.40;99.90
13998;DHT22;7074;51.508;7.018;2022-09-27T13:27:36;13.40;99.90
13998;DHT22;7074;51.508;7.018;2022-09-27T13:33:44;13.30;99.90
13998;DHT22;7074;51.508;7.018;2022-09-27T13:36:26;13.30;99.90
13998;DHT22;7074;51.508;7.018;2022-09-27T13:39:17;13.30;99.90
13998;DHT22;7074;51.508;7.018;2022-09-27T13:42:24;13.30;99.90
13998;DHT22;7074;51.508;7.018;2022-09-27T13:45:13;13.30;99.90
13998;DHT22;7074;51.508;7.018;2022-09-27T13:47:46;13.40;99.90
13998;DHT22;7074;51.508;7.018;2022-09-27T13:50:36;13.40;99.90
13998;DHT22;7074;51.508;7.018;2022-09-27T13:53:21;13.50;99.90
13998;DHT22;7074;51.508;7.018;2022-09-27T13:55:50;13.50;99.90
13998;DHT22;7074;51.508;7.018;2022-09-27T13:58:38;13.50;99.90
13998;DHT22;7074;51.508;7.018;2022-09-27T14:01:29;13.60;99.90
13998;DHT22;7074;51.508;7.018;2022-09-27T14:04:02;13.70;99.90
13998;DHT22;7074;51.508;7.018;2022-09-27T14:06:34;13.80;99.90
13998;DHT22;7074;51.508;7.018;2022-09-27T14:09:05;13.80;99.90
13998;DHT22;7074;51.508;7.018;2022-09-27T14:11:38;13.90;99.90
13998;DHT22;7074;51.508;7.018;2022-09-27T14:14:14;13.90;99.90
13998;DHT22;7074;51.508;7.018;2022-09-27T14:16:49;14.00;99.90
13998;DHT22;7074;51.508;7.018;2022-09-27T14:19:18;14.10;99.90
13998;DHT22;7074;51.508;7.018;2022-09-27T14:22:07;14.10;99.90
13998;DHT22;7074;51.508;7.018;2022-09-27T14:24:51;14.00;99.90
13998;DHT22;7074;51.508;7.018;2022-09-27T14:27:35;14.20;99.90
13998;DHT22;7074;51.508;7.018;2022-09-27T14:30:29;14.10;99.90
13998;DHT22;7074;51.508;7.018;2022-09-27T14:33:27;14.10;99.90
13998;DHT22;7074;51.508;7.018;2022-09-27T14:36:00;14.10;99.90
13998;DHT22;7074;51.508;7.018;2022-09-27T14:38:48;14.10;99.90
13998;DHT22;7074;51.508;7.018;2022-09-27T14:41:25;14.10;99.90
13998;DHT22;7074;51.508;7.018;2022-09-27T14:43:53;13.90;99.90
13998;DHT22;7074;51.508;7.018;2022-09-27T14:46:26;14.00;99.90
13998;DHT22;7074;51.508;7.018;2022-09-27T14:48:54;14.00;99.90
13998;DHT22;7074;51.508;7.018;2022-09-27T14:51:27;14.10;99.90
13998;DHT22;7074;51.508;7.018;2022-09-27T14:53:58;14.10;99.90
13998;DHT22;7074;51.508;7.018;2022-09-27T14:56:31;14.00;99.90
13998;DHT22;7074;51.508;7.018;2022-09-27T14:59:03;14.00;99.90
13998;DHT22;7074;51.508;7.018;2022-09-27T15:01:34;14.00;99.90
13998;DHT22;7074;51.508;7.018;2022-09-27T15:04:06;14.00;99.90
13998;DHT22;7074;51.508;7.018;2022-09-27T15:06:36;14.00;99.90
13998;DHT22;7074;51.508;7.018;2022-09-27T15:09:05;14.00;99.90
13998;DHT22;7074;51.508;7.018;2022-09-27T15:11:35;14.10;99.90
13998;DHT22;7074;51.508;7.018;2022-09-27T15:14:04;14.10;99.90
13998;DHT22;7074;51.508;7.018;2022-09-27T15:16:33;14.10;99.90
13998;DHT22;7074;51.508;7.018;2022-09-27T15:19:04;14.10;99.90
13998;DHT22;7074;51.508;7.018;2022-09-27T15:21:34;14.00;99.90
13998;DHT22;7074;51.508;7.018;2022-09-27T15:24:02;14.10;99.90
13998;DHT22;7074;51.508;7.018;2022-09-27T15:26:37;14.20;99.90
13998;DHT22;7074;51.508;7.018;2022-09-27T15:29:16;14.30;99.90
13998;DHT22;7074;51.508;7.018;2022-09-27T15:31:45;14.30;99.90
13998;DHT22;7074;51.508;7.018;2022-09-27T15:34:25;14.30;99.90
13998;DHT22;7074;51.508;7.018;2022-09-27T15:36:54;14.30;99.90
13998;DHT22;7074;51.508;7.018;2022-09-27T15:39:27;14.30;99.90
13998;DHT22;7074;51.508;7.018;2022-09-27T15:42:07;14.00;99.90
13998;DHT22;7074;51.508;7.018;2022-09-27T15:44:37;14.10;99.90
13998;DHT22;7074;51.508;7.018;2022-09-27T15:47:37;13.90;99.90
13998;DHT22;7074;51.508;7.018;2022-09-27T15:50:31;13.90;99.90
13998;DHT22;7074;51.508;7.018;2022-09-27T15:53:00;13.90;99.90
13998;DHT22;7074;51.508;7.018;2022-09-27T15:55:28;13.90;99.90
13998;DHT22;7074;51.508;7.018;2022-09-27T15:58:02;14.00;99.90
13998;DHT22;7074;51.508;7.018;2022-09-27T16:00:30;13.90;99.90
13998;DHT22;7074;51.508;7.018;2022-09-27T16:02:58;14.00;99.90
13998;DHT22;7074;51.508;7.018;2022-09-27T16:05:26;14.00;99.90
13998;DHT22;7074;51.508;7.018;2022-09-27T16:07:54;14.00;99.90
13998;DHT22;7074;51.508;7.018;2022-09-27T16:10:26;13.90;99.90
13998;DHT22;7074;51.508;7.018;2022-09-27T16:12:56;13.90;99.90
13998;DHT22;7074;51.508;7.018;2022-09-27T16:15:25;14.00;99.90
13998;DHT22;7074;51.508;7.018;2022-09-27T16:17:52;14.00;99.90
13998;DHT22;7074;51.508;7.018;2022-09-27T16:20:22;14.00;99.90
13998;DHT22;7074;51.508;7.018;2022-09-27T16:22:51;14.00;99.90
13998;DHT22;7074;51.508;7.018;2022-09-27T16:25:19;14.00;99.90
13998;DHT22;7074;51.508;7.018;2022-09-27T16:27:48;14.00;99.90
13998;DHT22;7074;51.508;7.018;2022-09-27T16:30:17;13.90;99.90
13998;DHT22;7074;51.508;7.018;2022-09-27T16:32:48;13.90;99.90
13998;DHT22;7074;51.508;7.018;2022-09-27T16:35:17;13.80;99.90
13998;DHT22;7074;51.508;7.018;2022-09-27T16:37:45;13.80;99.90
13998;DHT22;7074;51.508;7.018;2022-09-27T16:40:16;13.80;99.90
13998;DHT22;7074;51.508;7.018;2022-09-27T16:42:46;13.80;99.90
13998;DHT22;7074;51.508;7.018;2022-09-27T16:45:15;13.60;99.90
13998;DHT22;7074;51.508;7.018;2022-09-27T16:47:43;13.60;99.90
13998;DHT22;7074;51.508;7.018;2022-09-27T16:50:13;13.60;99.90
13998;DHT22;7074;51.508;7.018;2022-09-27T16:52:59;13.60;99.90
13998;DHT22;7074;51.508;7.018;2022-09-27T16:55:27;13.50;99.90